Weather observations for the past three days for
King Airport, St. Thomas
Imperial (Metric)
Date Time (ast) Wind (mph) Vis. (mi.) Weather Sky Cond. Temperature (ºF) Relative Humidity Wind Chill (°F) Heat Index (°F) Pressure Precipitation (in)
Air Dwpt 6 hour altimeter (in) sea level (mb) 1 hr 3 hr 6 hr
Max. Min.
09 10:53 E 15 G 25 10.00 Partly Cloudy SCT030 91 64 41% 93 30.02 1016.6
09 09:53 E 15 G 23 10.00 Partly Cloudy SCT030 89.6 64.4 43% 91 30.02 0.0
09 08:53 E 15 10.00 Fair CLR 87.8 68 52% 91 30.02 0.0
09 07:53 E 13 G 21 10.00 A Few Clouds FEW029 84.2 69.8 62% 88 30.01 0.0
09 06:53 E 5 10.00 Fair CLR 80.1 70 71% 83 29.99 1015.7
09 05:53 E 3 10.00 Fair CLR 78.8 69.8 74% 81 29.98 0.0
09 04:53 E 7 10.00 Fair CLR 78.8 69.8 74% 81 29.96 0.0
09 03:53 E 7 10.00 Fair CLR 78.8 69.8 74% 81 29.96 0.0
09 02:53 E 7 10.00 Fair CLR 80.6 69.8 70% 84 29.96 0.0
09 01:53 E 7 10.00 Fair CLR 78.8 69.8 74% 81 29.96 0.0
09 00:53 E 6 10.00 Fair CLR 80.6 71.6 74% 85 29.98 0.0
08 23:53 E 7 10.00 Fair CLR 80.6 71.6 74% 85 30 0.0
08 22:53 E 9 10.00 Fair CLR 80.6 71.6 74% 85 30.01 0.0
08 21:53 E 8 10.00 Fair CLR 80.6 69.8 70% 84 30.01 0.0
08 20:53 E 6 10.00 Fair CLR 81 71.1 72% 85 29.99 1015.6
08 19:53 E 7 10.00 A Few Clouds FEW080 80.6 69.8 70% 84 29.97 0.0
08 18:53 E 13 10.00 Partly Cloudy FEW027 SCT070 82.4 71.6 70% 87 29.95 0.0
08 17:53 E 9 10.00 Fair CLR 84.2 69.8 62% 88 29.94 0.0
08 16:53 SE 12 10.00 Partly Cloudy SCT030 84.9 72 65% 91 29.93 1013.4
08 15:53 SE 13 10.00 Partly Cloudy SCT030 86 71.6 62% 92 29.92 0.0
08 14:53 SE 12 10.00 Partly Cloudy SCT030 87.8 71.6 59% 94 29.94 0.0
08 13:53 SE 13 10.00 Partly Cloudy SCT030 87.1 70 88 82.9 57% 92 29.95 1014.1
08 12:53 SE 12 10.00 Partly Cloudy SCT040 SCT060 86 72 63% 92 29.97 1015.0
08 11:53 SE 12 10.00 Partly Cloudy SCT030 87.8 71.6 59% 94 29.98 0.0
08 10:53 SE 14 10.00 Partly Cloudy SCT030 84.2 71.6 66% 90 29.99 0.0
08 09:53 SE 13 10.00 Partly Cloudy SCT030 84.9 71.1 63% 90 29.99 1015.7
08 08:53 Vrbl 7 10.00 Mostly Cloudy SCT030 BKN055 84.2 71.6 66% 90 29.99 0.0
08 07:53 E 8 10.00 Partly Cloudy SCT040 84.2 69.8 62% 88 29.99 0.0
08 06:53 E 3 10.00 Partly Cloudy SCT025 81 70 69% 84 29.98 1015.3
08 05:53 E 5 10.00 Fair CLR 75.2 69.8 83% 75 29.97 0.0
08 04:53 Calm 10.00 Fair CLR 77 71.6 83% 78 29.96 0.0
08 03:53 Calm 10.00 Fair CLR 78.8 71.6 79% 82 29.96 0.0
08 02:53 Calm 10.00 Fair CLR 78.8 69.8 74% 81 29.96 0.0
08 01:53 NE 3 10.00 Fair CLR 78.8 69.8 74% 81 29.97 0.0
08 00:53 NE 3 10.00 Fair CLR 78.8 69.8 74% 81 29.99 0.0
07 23:53 E 5 10.00 A Few Clouds FEW002 78.8 71.6 79% 82 30.01 0.0
07 22:53 E 8 10.00 A Few Clouds FEW002 80.1 71.1 74% 84 30.01 1016.4
07 21:53 E 8 10.00 Fair CLR 80.1 71.1 74% 84 30.01 1016.3
07 20:53 E 7 10.00 Partly Cloudy SCT025 80.6 71.6 74% 85 30.01 0.0
07 19:53 E 5 10.00 Fair CLR 80.6 71.6 74% 85 29.99 0.0
07 18:53 E 8 10.00 Fair CLR 82.4 71.6 70% 87 29.98 0.0
07 17:53 NE 10 10.00 A Few Clouds FEW030 84.2 71.6 66% 90 29.96 0.0
07 16:53 E 10 G 21 10.00 Partly Cloudy SCT022 84.2 71.6 66% 90 29.95 0.0
07 15:53 SE 14 10.00 Partly Cloudy SCT030 84.2 73.4 70% 91 29.96 0.0
07 14:53 SE 14 10.00 Partly Cloudy SCT030 86 73.9 67% 94 29.97 1015.0
07 13:53 SE 15 10.00 Partly Cloudy SCT040 87.8 73.4 62% 96 29.99 0.0
07 12:53 SE 14 10.00 Partly Cloudy SCT038 87.8 73.4 62% 96 30.01 0.0
07 11:53 SE 15 10.00 Partly Cloudy SCT030 87.8 73.4 62% 96 30.03 0.0
07 10:53 SE 17 10.00 Partly Cloudy SCT030 86 73.4 66% 93 30.04 0.0
07 09:53 SE 16 10.00 Partly Cloudy SCT030 84.2 73.4 70% 91 30.04 0.0
07 07:53 E 8 10.00 Partly Cloudy SCT030 82.4 73.4 74% 88 30.02 0.0
07 06:53 E 10 10.00 Fair CLR 82 73 74% 87 30.01 1016.2
07 05:53 E 7 10.00 Fair CLR 80.6 73.4 79% 85 30 0.0
07 04:53 E 9 10.00 Fair CLR 80.1 73 79% 84 29.99 1015.7
07 03:53 E 8 10.00 Fair CLR 80.6 73.4 79% 85 29.99 0.0
07 02:53 E 10 10.00 Fair CLR 80.6 73.4 79% 85 30 0.0
07 01:53 E 10 10.00 Mostly Cloudy BKN090 80.6 71.6 74% 85 30.02 0.0
07 00:53 E 8 10.00 A Few Clouds FEW055 80.6 73.4 79% 85 30.05 0.0
06 23:53 E 7 10.00 Fair CLR 80.6 73.4 79% 85 30.06 0.0
06 22:53 E 9 10.00 Fair CLR 82 73.9 77% 88 30.07 1018.1
06 21:53 E 8 10.00 Fair CLR 82 73 74% 87 30.07 1018.2
06 20:53 E 8 10.00 Fair CLR 82.4 73.4 74% 88 30.05 0.0
06 19:53 E 12 10.00 A Few Clouds FEW023 82.4 73.4 74% 88 30.03 0.0
06 18:53 SE 12 10.00 Fair CLR 82.9 73 72% 89 30.01 1016.4
06 17:53 SE 12 10.00 Fair CLR 84.2 73.4 70% 91 30 0.0
06 16:53 SE 13 10.00 Fair CLR 86 73.9 67% 94 29.99 1015.7
06 15:53 SE 13 10.00 Fair CLR 87.8 73.4 62% 96 30 0.0
06 14:53 SE 13 10.00 A Few Clouds FEW030 89.6 73.4 59% 98 30 0.0
06 13:53 SE 14 10.00 A Few Clouds FEW030 87.8 73.4 62% 96 30.03 0.0
06 12:53 SE 13 10.00 A Few Clouds FEW030 87.8 73.4 62% 96 30.05 0.0
06 11:53 SE 13 10.00 Partly Cloudy SCT030 87.8 73.4 62% 96 30.07 0.0
Date Time (ast) Wind (mph) Vis. (mi.) Weather Sky Cond. Air Dwpt Max. Min. Relative Humidity Wind Chill (°F) Heat Index (°F) altimeter (in) sea level (mb) 1 hr 3 hr 6 hr
6 hour
Temperature (ºF) Pressure Precipitation (in)